Time;durP1;ratioP1;P1;durP2;ratioP2;P2;SDS_P1;SDS_P2;PMS_P1;PMS_P2;Temp;Humidity;BMP_temperature;BMP_pressure;BME280_temperature;BME280_humidity;BME280_pressure;Samples;Min_cycle;Max_cycle;Signal;HPM_P1;HPM_P2
2022/11/17 00:01:21;;;;;;;8.50;7.80;;;;;;;;;;5050388;28;20693;-57
2022/11/17 00:03:46;;;;;;;8.53;7.90;;;;;;;;;;5050180;28;20587;-56
2022/11/17 00:06:12;;;;;;;8.03;7.43;;;;;;;;;;5050495;28;20556;-56
2022/11/17 00:08:37;;;;;;;8.67;8.07;;;;;;;;;;5049225;28;20716;-57
2022/11/17 00:11:03;;;;;;;9.33;8.53;;;;;;;;;;5038460;28;20181;-56
2022/11/17 00:16:15;;;;;;;8.60;7.90;;;;;;;;;;5050307;28;20286;-56
2022/11/17 00:21:27;;;;;;;9.80;8.90;;;;;;;;;;5050079;28;21078;-57
2022/11/17 00:23:52;;;;;;;9.13;8.33;;;;;;;;;;5039938;28;20613;-57
2022/11/17 00:26:24;;;;;;;9.10;8.30;;;;;;;;;;5037068;28;20963;-56
2022/11/17 00:28:58;;;;;;;8.37;7.77;;;;;;;;;;5049793;28;20183;-56
2022/11/17 00:34:10;;;;;;;8.33;7.63;;;;;;;;;;5030249;28;20558;-55
2022/11/17 00:36:40;;;;;;;8.00;7.40;;;;;;;;;;5045534;28;20597;-56
2022/11/17 00:39:06;;;;;;;7.63;7.03;;;;;;;;;;5050028;28;21136;-55
2022/11/17 00:41:31;;;;;;;8.57;7.97;;;;;;;;;;5048786;28;20627;-56
2022/11/17 00:43:56;;;;;;;8.80;8.20;;;;;;;;;;5049389;28;20658;-56
2022/11/17 00:46:22;;;;;;;7.32;6.82;;;;;;;;;;5044662;28;20198;-56
2022/11/17 00:48:47;;;;;;;8.97;8.27;;;;;;;;;;5033063;28;20614;-55
2022/11/17 00:51:12;;;;;;;7.77;7.17;;;;;;;;;;5034072;28;20643;-56
2022/11/17 00:53:37;;;;;;;7.93;7.33;;;;;;;;;;5033389;28;20228;-55
2022/11/17 00:56:03;;;;;;;8.13;7.43;;;;;;;;;;5042081;28;20586;-55
2022/11/17 00:58:28;;;;;;;7.80;7.20;;;;;;;;;;5037872;28;20270;-56
2022/11/17 01:00:53;;;;;;;8.67;8.03;;;;;;;;;;5043227;28;20173;-56
2022/11/17 01:03:18;;;;;;;7.70;7.20;;;;;;;;;;5033623;28;20177;-55
2022/11/17 01:05:43;;;;;;;7.40;6.80;;;;;;;;;;5036284;28;20667;-56
2022/11/17 01:08:08;;;;;;;7.20;6.60;;;;;;;;;;5046007;28;20182;-56
2022/11/17 01:10:34;;;;;;;7.47;6.87;;;;;;;;;;5036575;28;20181;-56
2022/11/17 01:12:59;;;;;;;6.57;6.07;;;;;;;;;;5035666;28;20211;-56
2022/11/17 01:15:24;;;;;;;7.40;6.87;;;;;;;;;;5034132;28;20194;-56
2022/11/17 01:17:49;;;;;;;7.13;6.60;;;;;;;;;;5040552;28;20235;-56
2022/11/17 01:20:15;;;;;;;6.55;6.05;;;;;;;;;;5033269;28;20701;-56
2022/11/17 01:22:40;;;;;;;6.80;6.20;;;;;;;;;;5033105;28;20339;-56
2022/11/17 01:25:05;;;;;;;5.70;5.30;;;;;;;;;;5041399;28;20683;-56
2022/11/17 01:27:30;;;;;;;5.83;5.43;;;;;;;;;;5048661;28;20172;-56
2022/11/17 01:29:55;;;;;;;6.00;5.60;;;;;;;;;;5033969;28;20179;-56
2022/11/17 01:32:21;;;;;;;5.40;5.00;;;;;;;;;;5033491;28;20225;-56
2022/11/17 01:34:46;;;;;;;5.67;5.20;;;;;;;;;;5033024;28;20632;-57
2022/11/17 01:37:20;;;;;;;5.13;4.77;;;;;;;;;;5041295;28;20188;-57
2022/11/17 01:39:49;;;;;;;5.63;5.23;;;;;;;;;;5032738;28;20590;-57
2022/11/17 01:42:19;;;;;;;4.53;4.23;;;;;;;;;;5038177;28;20676;-57
2022/11/17 01:45:04;;;;;;;5.37;5.00;;;;;;;;;;5052828;28;20969;-56
2022/11/17 01:47:35;;;;;;;5.20;4.87;;;;;;;;;;5046454;28;20591;-56
2022/11/17 01:50:19;;;;;;;5.03;4.73;;;;;;;;;;5035889;28;20591;-54
2022/11/17 01:52:45;;;;;;;4.83;4.43;;;;;;;;;;5051506;28;20780;-58
2022/11/17 01:55:11;;;;;;;4.87;4.53;;;;;;;;;;5052445;28;20642;-55
2022/11/17 01:57:40;;;;;;;5.00;4.70;;;;;;;;;;5044835;28;20602;-55
2022/11/17 02:00:06;;;;;;;4.43;4.13;;;;;;;;;;5033001;28;20186;-55
2022/11/17 02:02:32;;;;;;;4.90;4.60;;;;;;;;;;5033736;28;21054;-55
2022/11/17 02:05:05;;;;;;;5.10;4.77;;;;;;;;;;5032128;28;20666;-55
2022/11/17 02:07:33;;;;;;;4.77;4.47;;;;;;;;;;5035800;28;20181;-56
2022/11/17 02:09:59;;;;;;;4.93;4.53;;;;;;;;;;5036906;28;20602;-56
2022/11/17 02:12:25;;;;;;;4.97;4.67;;;;;;;;;;5045834;28;20621;-55
2022/11/17 02:14:51;;;;;;;5.37;4.97;;;;;;;;;;5041931;28;20607;-55
2022/11/17 02:17:17;;;;;;;4.93;4.63;;;;;;;;;;5031833;28;20612;-55
2022/11/17 02:19:43;;;;;;;5.33;4.93;;;;;;;;;;5035580;28;20602;-55
2022/11/17 02:22:14;;;;;;;5.83;5.43;;;;;;;;;;5032517;28;20266;-55
2022/11/17 02:24:48;;;;;;;5.43;4.97;;;;;;;;;;5047527;28;20586;-56
2022/11/17 02:27:28;;;;;;;5.63;5.23;;;;;;;;;;5041018;28;20600;-55
2022/11/17 02:30:23;;;;;;;5.03;4.73;;;;;;;;;;5040837;28;20690;-55
2022/11/17 02:32:48;;;;;;;4.80;4.50;;;;;;;;;;5031320;28;20658;-55
2022/11/17 02:35:21;;;;;;;4.47;4.17;;;;;;;;;;5039386;28;20634;-55
2022/11/17 02:38:06;;;;;;;4.43;4.13;;;;;;;;;;5037806;28;20178;-56
2022/11/17 02:40:33;;;;;;;3.57;3.37;;;;;;;;;;5035885;28;20614;-55
2022/11/17 02:45:49;;;;;;;3.60;3.30;;;;;;;;;;5035083;28;20687;-54
2022/11/17 02:48:17;;;;;;;3.77;3.57;;;;;;;;;;5030463;28;20610;-55
2022/11/17 02:50:43;;;;;;;3.57;3.37;;;;;;;;;;5034947;28;21169;-55
2022/11/17 02:53:08;;;;;;;3.03;2.93;;;;;;;;;;5041503;28;20662;-56
2022/11/17 02:55:34;;;;;;;4.00;3.80;;;;;;;;;;5042910;28;20617;-55
2022/11/17 02:57:59;;;;;;;3.90;3.70;;;;;;;;;;5041573;28;20179;-55
2022/11/17 03:00:26;;;;;;;3.73;3.53;;;;;;;;;;5035225;28;20190;-54
2022/11/17 03:03:04;;;;;;;3.47;3.23;;;;;;;;;;5031180;28;20327;-55
2022/11/17 03:05:29;;;;;;;4.10;3.80;;;;;;;;;;5045255;28;20582;-55
2022/11/17 03:08:02;;;;;;;3.92;3.72;;;;;;;;;;5038070;28;20664;-55
2022/11/17 03:10:45;;;;;;;3.53;3.33;;;;;;;;;;5039600;28;20646;-55
2022/11/17 03:13:14;;;;;;;4.87;4.57;;;;;;;;;;5031893;28;20692;-55
2022/11/17 03:15:52;;;;;;;4.00;3.70;;;;;;;;;;5035699;28;20617;-55
2022/11/17 03:18:22;;;;;;;4.07;3.77;;;;;;;;;;5051212;28;20942;-55
2022/11/17 03:20:57;;;;;;;4.10;3.90;;;;;;;;;;5045912;28;20605;-55
2022/11/17 03:23:35;;;;;;;4.73;4.37;;;;;;;;;;5041568;28;20662;-55
2022/11/17 03:26:01;;;;;;;4.47;4.17;;;;;;;;;;5048657;28;20596;-56
2022/11/17 03:28:28;;;;;;;5.13;4.77;;;;;;;;;;5048710;28;20609;-55
2022/11/17 03:30:54;;;;;;;5.07;4.77;;;;;;;;;;5048325;28;20600;-55
2022/11/17 03:33:21;;;;;;;5.30;4.97;;;;;;;;;;5042940;28;20601;-55
2022/11/17 03:35:50;;;;;;;4.50;4.20;;;;;;;;;;5037900;28;20602;-55
2022/11/17 03:38:17;;;;;;;4.90;4.50;;;;;;;;;;5030534;28;20613;-56
2022/11/17 03:40:44;;;;;;;4.83;4.43;;;;;;;;;;5032921;28;20608;-55
2022/11/17 03:43:11;;;;;;;5.00;4.60;;;;;;;;;;5042609;28;20707;-55
2022/11/17 03:45:38;;;;;;;5.13;4.83;;;;;;;;;;5039675;28;20602;-56
2022/11/17 03:48:09;;;;;;;5.10;4.70;;;;;;;;;;5038813;28;20922;-55
2022/11/17 03:50:34;;;;;;;4.57;4.27;;;;;;;;;;5035305;28;21173;-55
2022/11/17 03:53:03;;;;;;;5.22;4.90;;;;;;;;;;5040125;28;20618;-56
2022/11/17 03:55:46;;;;;;;5.97;5.57;;;;;;;;;;5045679;28;20198;-55
2022/11/17 03:58:14;;;;;;;5.40;5.10;;;;;;;;;;5044140;28;20599;-55
2022/11/17 04:00:40;;;;;;;5.60;5.10;;;;;;;;;;5034010;28;20603;-56
2022/11/17 04:03:05;;;;;;;5.30;4.93;;;;;;;;;;5030561;28;20636;-56
2022/11/17 04:05:30;;;;;;;6.60;6.07;;;;;;;;;;5031118;28;20593;-56
2022/11/17 04:07:55;;;;;;;5.97;5.40;;;;;;;;;;5036138;28;20258;-55
2022/11/17 04:10:22;;;;;;;6.68;6.20;;;;;;;;;;5037151;28;20183;-56
2022/11/17 04:15:55;;;;;;;5.90;5.47;;;;;;;;;;5034547;28;20589;-56
2022/11/17 04:18:17;;;;;;;5.40;5.10;;;;;;;;;;5034256;28;20610;-56
2022/11/17 04:20:42;;;;;;;5.30;5.00;;;;;;;;;;5036077;28;21213;-56
2022/11/17 04:23:10;;;;;;;5.60;5.20;;;;;;;;;;5041715;28;20583;-56
2022/11/17 04:28:35;;;;;;;6.00;5.50;;;;;;;;;;5041519;28;20985;-56
2022/11/17 04:31:01;;;;;;;5.33;5.03;;;;;;;;;;5028164;28;20602;-56
2022/11/17 04:33:26;;;;;;;6.33;5.83;;;;;;;;;;5043048;28;20604;-56
2022/11/17 04:35:52;;;;;;;5.20;4.90;;;;;;;;;;5046030;28;20599;-55
2022/11/17 04:38:17;;;;;;;5.63;5.23;;;;;;;;;;5045116;28;20254;-55
2022/11/17 04:41:52;;;;;;;6.30;5.80;;;;;;;;;;5036489;28;20208;-55
2022/11/17 04:43:27;;;;;;;5.70;5.30;;;;;;;;;;5037494;28;20193;-55
2022/11/17 04:45:56;;;;;;;6.03;5.63;;;;;;;;;;5046713;28;20670;-56
2022/11/17 04:48:21;;;;;;;6.30;5.80;;;;;;;;;;5050058;28;20178;-56
2022/11/17 04:50:47;;;;;;;6.20;5.80;;;;;;;;;;5048181;28;20599;-56
2022/11/17 04:53:12;;;;;;;5.68;5.28;;;;;;;;;;5037074;28;20213;-56
2022/11/17 04:55:37;;;;;;;6.23;5.77;;;;;;;;;;5032214;28;20635;-56
2022/11/17 04:58:02;;;;;;;6.03;5.63;;;;;;;;;;5030469;28;20183;-56
2022/11/17 05:00:27;;;;;;;6.20;5.80;;;;;;;;;;5040128;28;20176;-56
2022/11/17 05:02:52;;;;;;;6.10;5.70;;;;;;;;;;5030901;28;20201;-56
2022/11/17 05:05:18;;;;;;;7.20;6.60;;;;;;;;;;5043951;28;20169;-55
2022/11/17 05:07:43;;;;;;;6.53;6.03;;;;;;;;;;5043737;28;20184;-56
2022/11/17 05:10:09;;;;;;;6.85;6.35;;;;;;;;;;5040933;28;20180;-56
2022/11/17 05:17:03;;;;;;;6.50;5.90;;;;;;;;;;5029371;28;20620;-56
2022/11/17 05:18:03;;;;;;;6.80;6.30;;;;;;;;;;5029044;28;20566;-56
2022/11/17 05:20:31;;;;;;;6.47;5.97;;;;;;;;;;5039831;28;20678;-56
2022/11/17 05:25:40;;;;;;;5.97;5.57;;;;;;;;;;5055321;28;20653;-56
2022/11/17 05:28:05;;;;;;;5.73;5.33;;;;;;;;;;5034542;28;20615;-55
2022/11/17 05:30:30;;;;;;;6.33;5.80;;;;;;;;;;5030803;28;20172;-56
2022/11/17 05:32:55;;;;;;;4.53;4.23;;;;;;;;;;5033946;28;20245;-56
2022/11/17 05:35:20;;;;;;;5.25;4.82;;;;;;;;;;5040847;28;20191;-56
2022/11/17 05:37:46;;;;;;;5.73;5.33;;;;;;;;;;5030567;28;20568;-57
2022/11/17 05:40:11;;;;;;;6.70;6.20;;;;;;;;;;5032279;28;20184;-55
2022/11/17 05:42:36;;;;;;;5.50;5.10;;;;;;;;;;5034850;28;20615;-55
2022/11/17 05:45:01;;;;;;;5.50;5.10;;;;;;;;;;5041507;28;20179;-56
2022/11/17 05:47:26;;;;;;;6.00;5.60;;;;;;;;;;5045964;28;20224;-55
2022/11/17 05:49:51;;;;;;;6.20;5.70;;;;;;;;;;5043115;28;20191;-55
2022/11/17 05:52:17;;;;;;;6.03;5.53;;;;;;;;;;5034909;28;20183;-55
2022/11/17 05:54:42;;;;;;;5.80;5.38;;;;;;;;;;5031834;28;20235;-55
2022/11/17 05:57:13;;;;;;;5.93;5.53;;;;;;;;;;5030663;28;20684;-56
2022/11/17 05:59:47;;;;;;;4.73;4.43;;;;;;;;;;5029943;28;20307;-57
2022/11/17 06:02:32;;;;;;;5.60;5.17;;;;;;;;;;5038772;28;20646;-56
2022/11/17 06:04:58;;;;;;;6.23;5.83;;;;;;;;;;5029155;28;20609;-56
2022/11/17 06:07:23;;;;;;;5.70;5.32;;;;;;;;;;5030139;28;20650;-56
2022/11/17 06:09:49;;;;;;;5.87;5.37;;;;;;;;;;5031048;28;20678;-56
2022/11/17 06:12:14;;;;;;;5.63;5.23;;;;;;;;;;5028622;28;20252;-56
2022/11/17 06:14:40;;;;;;;5.63;5.23;;;;;;;;;;5026247;28;20623;-56
2022/11/17 06:17:07;;;;;;;5.87;5.47;;;;;;;;;;5035683;28;20190;-60
2022/11/17 06:19:39;;;;;;;5.00;4.60;;;;;;;;;;5051823;28;20643;-60
2022/11/17 06:22:04;;;;;;;5.37;5.00;;;;;;;;;;5039246;28;20653;-61
2022/11/17 06:24:30;;;;;;;5.33;5.03;;;;;;;;;;5031866;28;21012;-60
2022/11/17 06:26:55;;;;;;;4.83;4.53;;;;;;;;;;5031470;28;20285;-60
2022/11/17 06:29:21;;;;;;;6.10;5.63;;;;;;;;;;5032156;28;21143;-60
2022/11/17 06:31:46;;;;;;;5.40;5.10;;;;;;;;;;5032209;28;20183;-61
2022/11/17 06:34:11;;;;;;;5.30;5.00;;;;;;;;;;5032408;28;20169;-61
2022/11/17 06:36:36;;;;;;;5.20;4.90;;;;;;;;;;5044401;28;20188;-61
2022/11/17 06:39:02;;;;;;;5.67;5.27;;;;;;;;;;5051850;28;20221;-60
2022/11/17 06:41:27;;;;;;;5.60;5.20;;;;;;;;;;5052084;28;20702;-60
2022/11/17 06:43:52;;;;;;;4.90;4.60;;;;;;;;;;5051843;28;20521;-60
2022/11/17 06:46:18;;;;;;;5.10;4.75;;;;;;;;;;5049055;28;20186;-60
2022/11/17 06:48:43;;;;;;;4.80;4.50;;;;;;;;;;5051756;28;20179;-60
2022/11/17 06:51:08;;;;;;;4.80;4.50;;;;;;;;;;5038018;28;20230;-60
2022/11/17 06:53:33;;;;;;;4.87;4.57;;;;;;;;;;5032252;28;20610;-61
2022/11/17 06:56:09;;;;;;;5.00;4.70;;;;;;;;;;5031479;28;20283;-60
2022/11/17 06:58:35;;;;;;;4.83;4.53;;;;;;;;;;5049016;28;20170;-61
2022/11/17 07:01:07;;;;;;;5.13;4.73;;;;;;;;;;5049232;28;20617;-61
2022/11/17 07:03:34;;;;;;;4.50;4.20;;;;;;;;;;5036528;28;20174;-62
2022/11/17 07:06:00;;;;;;;5.87;5.47;;;;;;;;;;5051284;28;20574;-61
2022/11/17 07:08:25;;;;;;;4.83;4.47;;;;;;;;;;5048134;28;21026;-62
2022/11/17 07:10:53;;;;;;;4.67;4.37;;;;;;;;;;5034205;28;20198;-61
2022/11/17 07:13:19;;;;;;;5.00;4.70;;;;;;;;;;5031265;28;20196;-62
2022/11/17 07:15:44;;;;;;;4.83;4.53;;;;;;;;;;5032291;28;20663;-61
2022/11/17 07:18:09;;;;;;;4.70;4.40;;;;;;;;;;5034857;28;20176;-61
2022/11/17 07:20:34;;;;;;;4.43;4.22;;;;;;;;;;5034737;28;20651;-63
2022/11/17 07:22:59;;;;;;;4.72;4.32;;;;;;;;;;5037670;28;20209;-62
2022/11/17 07:25:24;;;;;;;5.53;5.13;;;;;;;;;;5037629;28;20266;-61
2022/11/17 07:27:56;;;;;;;4.90;4.60;;;;;;;;;;5048399;28;20449;-61
2022/11/17 07:30:21;;;;;;;5.00;4.70;;;;;;;;;;5035080;28;20257;-63
2022/11/17 07:32:46;;;;;;;5.27;4.87;;;;;;;;;;5047140;28;20645;-61
2022/11/17 07:35:11;;;;;;;4.77;4.47;;;;;;;;;;5051255;28;20181;-61
2022/11/17 07:37:36;;;;;;;5.00;4.70;;;;;;;;;;5047653;28;20636;-61
2022/11/17 07:40:02;;;;;;;5.20;4.80;;;;;;;;;;5043868;28;20220;-56
2022/11/17 07:42:27;;;;;;;5.23;4.83;;;;;;;;;;5039256;28;20246;-56
2022/11/17 07:44:53;;;;;;;5.70;5.30;;;;;;;;;;5033456;28;20201;-58
2022/11/17 07:47:18;;;;;;;5.53;5.10;;;;;;;;;;5032185;28;20267;-57
2022/11/17 07:49:43;;;;;;;5.23;4.83;;;;;;;;;;5031140;28;20556;-57
2022/11/17 07:52:08;;;;;;;5.30;4.97;;;;;;;;;;5030792;28;20181;-55
2022/11/17 07:54:33;;;;;;;5.73;5.33;;;;;;;;;;5030816;28;20232;-56
2022/11/17 07:56:58;;;;;;;5.53;5.23;;;;;;;;;;5030361;28;20169;-56
2022/11/17 07:59:24;;;;;;;5.67;5.27;;;;;;;;;;5032636;28;20177;-56
2022/11/17 08:01:49;;;;;;;4.80;4.50;;;;;;;;;;5050834;28;20279;-55
2022/11/17 08:04:14;;;;;;;5.00;4.60;;;;;;;;;;5050704;28;20176;-55
2022/11/17 08:06:39;;;;;;;5.17;4.80;;;;;;;;;;5050681;28;20184;-56
2022/11/17 08:09:06;;;;;;;5.23;4.83;;;;;;;;;;5050446;28;20183;-55
2022/11/17 08:11:31;;;;;;;5.40;4.90;;;;;;;;;;5048666;28;20202;-56
2022/11/17 08:13:57;;;;;;;4.80;4.50;;;;;;;;;;5050561;28;20614;-57
2022/11/17 08:16:24;;;;;;;4.87;4.47;;;;;;;;;;5050226;28;20178;-56
2022/11/17 08:18:49;;;;;;;5.30;4.90;;;;;;;;;;5050761;28;20590;-55
2022/11/17 08:21:14;;;;;;;5.43;5.13;;;;;;;;;;5039970;28;20613;-56
2022/11/17 08:23:40;;;;;;;5.47;5.07;;;;;;;;;;5030638;28;20632;-56
2022/11/17 08:26:07;;;;;;;5.13;4.73;;;;;;;;;;5030273;28;20184;-56
2022/11/17 08:28:32;;;;;;;4.90;4.60;;;;;;;;;;5030443;28;20168;-56
2022/11/17 08:31:01;;;;;;;5.87;5.37;;;;;;;;;;5030465;28;20648;-56
2022/11/17 08:33:26;;;;;;;5.40;5.10;;;;;;;;;;5032914;28;20261;-56
2022/11/17 08:35:55;;;;;;;5.60;5.20;;;;;;;;;;5048345;28;20607;-57
2022/11/17 08:38:20;;;;;;;5.27;4.97;;;;;;;;;;5048473;28;20636;-56
2022/11/17 08:40:46;;;;;;;6.43;5.27;;;;;;;;;;5050099;28;20583;-56
2022/11/17 08:43:11;;;;;;;6.20;5.80;;;;;;;;;;5050197;28;20208;-55
2022/11/17 08:45:36;;;;;;;6.03;5.60;;;;;;;;;;5048932;28;20646;-56
2022/11/17 08:48:03;;;;;;;5.50;5.10;;;;;;;;;;5049976;28;20172;-56
2022/11/17 08:50:28;;;;;;;6.20;5.70;;;;;;;;;;5049214;28;20164;-56
2022/11/17 08:52:53;;;;;;;5.77;5.37;;;;;;;;;;5048147;28;20638;-58
2022/11/17 08:55:18;;;;;;;4.90;4.60;;;;;;;;;;5030229;28;20270;-56
2022/11/17 08:57:43;;;;;;;6.23;5.73;;;;;;;;;;5030027;28;20181;-56
2022/11/17 09:00:09;;;;;;;5.60;5.10;;;;;;;;;;5030358;28;20217;-56
2022/11/17 09:02:36;;;;;;;5.73;5.33;;;;;;;;;;5047094;28;20309;-57
2022/11/17 09:05:01;;;;;;;5.50;5.10;;;;;;;;;;5033234;28;20174;-56
2022/11/17 09:07:26;;;;;;;6.00;5.60;;;;;;;;;;5030175;28;20928;-57
2022/11/17 09:09:51;;;;;;;5.82;5.47;;;;;;;;;;5033436;28;20250;-57
2022/11/17 09:12:17;;;;;;;6.57;6.18;;;;;;;;;;5033815;28;20196;-57
2022/11/17 09:14:42;;;;;;;6.90;6.30;;;;;;;;;;5033896;28;20186;-56
2022/11/17 09:17:08;;;;;;;6.23;5.73;;;;;;;;;;5033809;28;20216;-57
2022/11/17 09:19:33;;;;;;;5.90;5.40;;;;;;;;;;5034244;28;20185;-57
2022/11/17 09:21:58;;;;;;;5.80;5.50;;;;;;;;;;5033907;28;20633;-56
2022/11/17 09:24:25;;;;;;;7.13;6.63;;;;;;;;;;5033461;28;20179;-56
2022/11/17 09:26:52;;;;;;;6.70;6.30;;;;;;;;;;5033524;28;20168;-56
2022/11/17 09:29:17;;;;;;;6.33;5.83;;;;;;;;;;5033721;28;20766;-56
2022/11/17 09:31:42;;;;;;;6.60;6.10;;;;;;;;;;5033785;28;21198;-56
2022/11/17 09:34:07;;;;;;;6.75;6.22;;;;;;;;;;5040064;28;20193;-57
2022/11/17 09:36:32;;;;;;;7.10;6.50;;;;;;;;;;5053729;28;20302;-56
2022/11/17 09:38:58;;;;;;;6.53;6.13;;;;;;;;;;5053493;28;20192;-56
2022/11/17 09:41:25;;;;;;;6.50;6.10;;;;;;;;;;5053209;28;20176;-56
2022/11/17 09:43:57;;;;;;;7.13;6.63;;;;;;;;;;5052767;28;20174;-57
2022/11/17 09:46:44;;;;;;;8.33;7.50;;;;;;;;;;5045698;28;20607;-58
2022/11/17 09:49:27;;;;;;;6.70;6.20;;;;;;;;;;5053353;28;20694;-57
2022/11/17 09:51:55;;;;;;;7.63;7.10;;;;;;;;;;5053186;28;20588;-54
2022/11/17 09:54:25;;;;;;;6.97;6.47;;;;;;;;;;5052892;28;20714;-56
2022/11/17 09:56:50;;;;;;;7.10;6.50;;;;;;;;;;5046580;28;20607;-56
2022/11/17 09:59:17;;;;;;;7.53;6.93;;;;;;;;;;5034101;28;20976;-56
2022/11/17 10:01:42;;;;;;;6.87;6.47;;;;;;;;;;5052899;28;20203;-56
2022/11/17 10:04:09;;;;;;;6.60;6.13;;;;;;;;;;5052600;28;20636;-61
2022/11/17 10:06:36;;;;;;;6.73;6.33;;;;;;;;;;5053191;28;20178;-56
2022/11/17 10:09:10;;;;;;;6.50;6.10;;;;;;;;;;5050869;28;20682;-56
2022/11/17 10:11:37;;;;;;;6.60;6.10;;;;;;;;;;5053013;28;20695;-55
2022/11/17 10:14:09;;;;;;;6.07;5.57;;;;;;;;;;5052612;28;20589;-57
2022/11/17 10:16:35;;;;;;;6.63;6.17;;;;;;;;;;5052335;28;20592;-56
2022/11/17 10:19:01;;;;;;;6.50;6.10;;;;;;;;;;5052475;28;20608;-56
2022/11/17 10:21:28;;;;;;;6.10;5.70;;;;;;;;;;5044844;28;20617;-56
2022/11/17 10:23:57;;;;;;;5.80;5.40;;;;;;;;;;5052917;28;20591;-56
2022/11/17 10:26:22;;;;;;;5.80;5.40;;;;;;;;;;5052503;28;20584;-56
2022/11/17 10:29:02;;;;;;;5.70;5.30;;;;;;;;;;5050579;28;22858;-57
2022/11/17 10:31:38;;;;;;;6.90;6.30;;;;;;;;;;5039915;28;20792;-56
2022/11/17 10:34:03;;;;;;;5.97;5.57;;;;;;;;;;5032196;28;20999;-57
2022/11/17 10:36:29;;;;;;;6.40;5.90;;;;;;;;;;5032574;28;20586;-56
2022/11/17 10:38:55;;;;;;;6.53;6.03;;;;;;;;;;5032671;28;20203;-55
2022/11/17 10:41:40;;;;;;;6.27;5.87;;;;;;;;;;5035354;28;20598;-57
2022/11/17 10:44:11;;;;;;;8.37;5.73;;;;;;;;;;5052244;28;20666;-56
2022/11/17 10:47:12;;;;;;;6.20;5.80;;;;;;;;;;5052293;28;20575;-57
2022/11/17 10:49:40;;;;;;;6.40;6.00;;;;;;;;;;5029803;28;20603;-57
2022/11/17 10:52:15;;;;;;;6.53;6.13;;;;;;;;;;5047787;28;20597;-57
2022/11/17 10:54:40;;;;;;;6.00;5.60;;;;;;;;;;5050135;28;21301;-57
2022/11/17 10:57:35;;;;;;;6.10;5.60;;;;;;;;;;5052107;28;20567;-57
2022/11/17 11:00:00;;;;;;;6.57;6.07;;;;;;;;;;5046710;28;20278;-57
2022/11/17 11:02:32;;;;;;;6.67;6.20;;;;;;;;;;5051628;28;20736;-57
2022/11/17 11:05:23;;;;;;;6.87;6.27;;;;;;;;;;5051901;28;20180;-57
2022/11/17 11:07:48;;;;;;;6.20;5.80;;;;;;;;;;5048219;28;20624;-56
2022/11/17 11:10:32;;;;;;;6.25;5.82;;;;;;;;;;5044528;28;20609;-55
2022/11/17 11:13:01;;;;;;;6.70;6.30;;;;;;;;;;5031390;28;20214;-56
2022/11/17 11:15:29;;;;;;;6.37;5.90;;;;;;;;;;5031693;28;21231;-56
2022/11/17 11:17:55;;;;;;;8.13;6.43;;;;;;;;;;5031454;28;20620;-56
2022/11/17 11:20:34;;;;;;;7.33;6.83;;;;;;;;;;5031115;28;20701;-56
2022/11/17 11:23:08;;;;;;;6.40;6.00;;;;;;;;;;5031458;28;20676;-56
2022/11/17 11:25:36;;;;;;;7.47;6.87;;;;;;;;;;5031422;28;20558;-55
2022/11/17 11:28:17;;;;;;;6.83;6.23;;;;;;;;;;5031502;28;20623;-55
2022/11/17 11:30:50;;;;;;;7.40;6.80;;;;;;;;;;5044178;28;20606;-56
2022/11/17 11:33:32;;;;;;;8.73;6.47;;;;;;;;;;5051213;28;20634;-56
2022/11/17 11:36:14;;;;;;;6.60;6.20;;;;;;;;;;5051489;28;20594;-56
2022/11/17 11:38:51;;;;;;;7.20;6.60;;;;;;;;;;5051083;28;20587;-58
2022/11/17 11:41:33;;;;;;;6.47;6.07;;;;;;;;;;5051066;28;20599;-56
2022/11/17 11:43:58;;;;;;;6.83;6.40;;;;;;;;;;5031024;28;20695;-56
2022/11/17 11:46:23;;;;;;;7.10;6.50;;;;;;;;;;5031045;28;20671;-55
2022/11/17 11:48:50;;;;;;;7.45;6.85;;;;;;;;;;5027135;28;20177;-56
2022/11/17 11:51:17;;;;;;;6.80;6.40;;;;;;;;;;5031090;28;20675;-56
2022/11/17 11:54:01;;;;;;;6.30;5.90;;;;;;;;;;5030669;28;20642;-55
2022/11/17 11:56:32;;;;;;;7.33;6.83;;;;;;;;;;5030981;28;20587;-56
2022/11/17 11:59:03;;;;;;;6.30;5.80;;;;;;;;;;5030754;28;20587;-56
2022/11/17 12:01:35;;;;;;;7.07;6.57;;;;;;;;;;5030726;28;21165;-56
2022/11/17 12:04:15;;;;;;;6.67;6.10;;;;;;;;;;5030583;28;21144;-56
2022/11/17 12:06:52;;;;;;;7.07;6.60;;;;;;;;;;5030834;28;20708;-57
2022/11/17 12:09:36;;;;;;;7.23;6.63;;;;;;;;;;5030764;28;20945;-57
2022/11/17 12:12:06;;;;;;;6.90;6.40;;;;;;;;;;5030598;28;20606;-57
2022/11/17 12:14:32;;;;;;;6.80;6.40;;;;;;;;;;5030867;28;20600;-56
2022/11/17 12:17:01;;;;;;;7.23;6.80;;;;;;;;;;5030594;28;20597;-56
2022/11/17 12:19:41;;;;;;;6.67;6.17;;;;;;;;;;5036152;28;20607;-56
2022/11/17 12:22:06;;;;;;;6.40;6.00;;;;;;;;;;5050669;28;20640;-56
2022/11/17 12:24:38;;;;;;;6.63;6.17;;;;;;;;;;5050440;28;20578;-56
2022/11/17 12:27:22;;;;;;;6.43;6.03;;;;;;;;;;5050676;28;20233;-56
2022/11/17 12:29:48;;;;;;;7.23;6.73;;;;;;;;;;5050876;28;20591;-57
2022/11/17 12:32:33;;;;;;;7.87;7.30;;;;;;;;;;5048516;28;20608;-56
2022/11/17 12:35:17;;;;;;;7.70;7.10;;;;;;;;;;5050501;28;20179;-56
2022/11/17 12:37:42;;;;;;;7.60;7.10;;;;;;;;;;5050229;28;20947;-56
2022/11/17 12:40:27;;;;;;;7.35;6.85;;;;;;;;;;5050393;28;20588;-56
2022/11/17 12:43:18;;;;;;;6.90;6.40;;;;;;;;;;5048791;28;20573;-57
2022/11/17 12:45:52;;;;;;;7.27;6.60;;;;;;;;;;5035480;28;20599;-57
2022/11/17 12:48:21;;;;;;;7.37;6.87;;;;;;;;;;5034390;28;20579;-56
2022/11/17 12:50:52;;;;;;;7.10;6.67;;;;;;;;;;5034390;28;20594;-57
2022/11/17 12:53:20;;;;;;;8.30;7.70;;;;;;;;;;5033885;28;20683;-57
2022/11/17 12:56:06;;;;;;;8.10;7.60;;;;;;;;;;5039998;28;20702;-57
2022/11/17 12:58:44;;;;;;;9.67;8.97;;;;;;;;;;5050357;28;20688;-56
2022/11/17 13:01:32;;;;;;;8.37;7.70;;;;;;;;;;5053781;28;20604;-57
2022/11/17 13:04:06;;;;;;;8.00;7.40;;;;;;;;;;5054392;28;20695;-56
2022/11/17 13:06:31;;;;;;;8.07;7.47;;;;;;;;;;5054271;28;20608;-57
2022/11/17 13:08:57;;;;;;;8.30;7.60;;;;;;;;;;5054281;28;20579;-57
2022/11/17 13:11:22;;;;;;;10.60;9.70;;;;;;;;;;5053273;28;20190;-58
2022/11/17 13:13:48;;;;;;;11.37;10.57;;;;;;;;;;5053329;28;21177;-57
2022/11/17 13:16:18;;;;;;;9.60;8.90;;;;;;;;;;5054158;28;20169;-57
2022/11/17 13:18:43;;;;;;;10.63;9.73;;;;;;;;;;5052949;28;20260;-58
2022/11/17 13:21:24;;;;;;;8.90;8.30;;;;;;;;;;5034010;28;20685;-58
2022/11/17 13:23:49;;;;;;;8.43;7.80;;;;;;;;;;5033780;28;20549;-58
2022/11/17 13:26:14;;;;;;;9.43;8.73;;;;;;;;;;5033886;28;20578;-58
2022/11/17 13:28:40;;;;;;;9.30;8.60;;;;;;;;;;5033988;28;20665;-57
2022/11/17 13:31:05;;;;;;;9.10;8.33;;;;;;;;;;5048039;28;20186;-58
2022/11/17 13:33:32;;;;;;;9.80;9.00;;;;;;;;;;5034784;28;20211;-57
2022/11/17 13:36:13;;;;;;;8.50;7.80;;;;;;;;;;5035957;28;20184;-57
2022/11/17 13:38:45;;;;;;;8.90;7.70;;;;;;;;;;5037078;28;20616;-57
2022/11/17 13:41:10;;;;;;;9.20;8.40;;;;;;;;;;5050271;28;20600;-57
2022/11/17 13:43:37;;;;;;;9.67;8.97;;;;;;;;;;5040419;28;21433;-57
2022/11/17 13:46:05;;;;;;;8.53;7.83;;;;;;;;;;5044118;28;20266;-57
2022/11/17 13:48:34;;;;;;;10.40;9.70;;;;;;;;;;5052721;28;20681;-57
2022/11/17 13:51:13;;;;;;;8.90;8.30;;;;;;;;;;5052893;28;20660;-57
2022/11/17 13:53:40;;;;;;;9.80;9.00;;;;;;;;;;5038667;28;20668;-57
2022/11/17 13:56:19;;;;;;;8.80;8.10;;;;;;;;;;5062436;28;20608;-57
2022/11/17 13:58:46;;;;;;;9.07;8.47;;;;;;;;;;5045804;28;20712;-62
2022/11/17 14:01:14;;;;;;;8.40;7.70;;;;;;;;;;5061527;28;20612;-57
2022/11/17 14:03:40;;;;;;;9.83;8.50;;;;;;;;;;5070863;28;20645;-56
2022/11/17 14:06:07;;;;;;;9.20;8.30;;;;;;;;;;5052451;28;20615;-57
2022/11/17 14:08:32;;;;;;;9.00;8.27;;;;;;;;;;5052757;28;21189;-57
2022/11/17 14:11:09;;;;;;;9.20;8.50;;;;;;;;;;5052649;28;20669;-57
2022/11/17 14:13:39;;;;;;;9.60;8.73;;;;;;;;;;5051703;28;20226;-58
2022/11/17 14:16:04;;;;;;;9.60;8.90;;;;;;;;;;5038646;28;21390;-57
2022/11/17 14:18:36;;;;;;;9.97;9.00;;;;;;;;;;5042619;28;20703;-57
2022/11/17 14:21:08;;;;;;;9.43;8.63;;;;;;;;;;5032491;28;20176;-56
2022/11/17 14:23:34;;;;;;;8.20;7.40;;;;;;;;;;5033750;28;20681;-57
2022/11/17 14:25:59;;;;;;;8.40;7.70;;;;;;;;;;5030734;28;20622;-57
2022/11/17 14:28:25;;;;;;;9.30;8.60;;;;;;;;;;5046451;28;20212;-57
2022/11/17 14:30:52;;;;;;;8.90;8.00;;;;;;;;;;5042180;28;20535;-57
2022/11/17 14:33:17;;;;;;;8.70;8.10;;;;;;;;;;5037024;28;20664;-57
2022/11/17 14:35:44;;;;;;;9.20;8.50;;;;;;;;;;5036085;28;20962;-57
2022/11/17 14:38:11;;;;;;;7.63;7.03;;;;;;;;;;5043236;28;20198;-57
2022/11/17 14:40:36;;;;;;;9.23;8.43;;;;;;;;;;5036880;28;20720;-58
2022/11/17 14:43:01;;;;;;;9.80;9.00;;;;;;;;;;5051662;28;20749;-57
2022/11/17 14:45:27;;;;;;;10.40;9.40;;;;;;;;;;5045154;28;20699;-57
2022/11/17 14:47:52;;;;;;;11.07;10.07;;;;;;;;;;5034653;28;20267;-56
2022/11/17 14:50:17;;;;;;;9.90;8.98;;;;;;;;;;5036768;28;20189;-57
2022/11/17 14:52:43;;;;;;;9.20;8.60;;;;;;;;;;5040741;28;20627;-56
2022/11/17 14:55:09;;;;;;;10.00;9.20;;;;;;;;;;5033072;28;20191;-57
2022/11/17 14:57:34;;;;;;;10.10;9.30;;;;;;;;;;5036054;28;20182;-57
2022/11/17 14:59:59;;;;;;;8.87;8.10;;;;;;;;;;5034113;28;20611;-56
2022/11/17 15:02:24;;;;;;;9.33;8.67;;;;;;;;;;5030733;28;20212;-57
2022/11/17 15:04:50;;;;;;;9.93;9.03;;;;;;;;;;5030588;28;20262;-56
2022/11/17 15:07:15;;;;;;;9.67;8.87;;;;;;;;;;5039051;28;20264;-56
2022/11/17 15:09:40;;;;;;;9.87;9.10;;;;;;;;;;5050265;28;20263;-56
2022/11/17 15:12:06;;;;;;;9.23;8.43;;;;;;;;;;5041468;28;20197;-57
2022/11/17 15:14:31;;;;;;;9.93;9.03;;;;;;;;;;5033615;28;20187;-57